Chautauqua County-Jamestown Airport Jamestown US
ICAO: KJHW
IATA: JHW
Category: Medium
Scheduled Services: No

Elevation: 1723 ft
TransAlt. 18000 ft.

Airport Communications:
ERIE APP/DEP:126.05
AWOS 3:118.425
BUFFALO RDO:114.7
CTAF/UNICOM:122.7

KJHW Zoom In..

Runways:

(A) RW 07 length 5299 ft width 100 ft
---- / hdg 69

(B) RW 13 length 4500 ft width 100 ft
---- / hdg 129

(C) RW 25 length 5299 ft width 100 ft
ILS 109.70 / hdg 249

(D) RW 31 length 4500 ft width 100 ft
---- / hdg 309

Location; KJHW
Day. 19 / Time. 20.56 Zulu
* Altimeter: 30.01
* Temperature: 6/° c. 42.8°f.
* Wind from: 310° Speed 19 kn with Gusts up to 24 kn.
Dewpoint: //° c.
Visibility: 10 Statute Miles.
Clouds: Overcast 1700 ft.

KJHW 192056Z AUTO 31019G24KT 10SM OVC017 01/M03 A3001 RMK AO2 PK WND 29026/2025 UPB38E42SNE38 SLP186 6//// T00061033 51016 FZRANO


Wind From 310°
Speed 19 kn.

  YouTube Music Video
 
jpsmedia.com for Web Design  worldairports.se 2018   terms of use